»·PEaware :: EAGLE1 KMOT-KMSP

EAGLE1 :: KMOT-KMSP

FLIGHT INFORMATION

Flight Status: Arrived
Operator: Unknown
More flights by this operator :: More flights under this callsign
Pilot: Alexander V. (24736)
Aircraft: NORTHROP T-38 AT-38 TALON
(T38)
More flights by this aircraft type
Origin: KMOT Minot Intl
United States
Destination: KMSP Minneapolis-St Paul Intl
United States
More flights between these airports :: More routes between these airports
Route: FAR GEP1
File this flight plan on PilotEdge
Remarks:
Altitude:
(Current/Filed)
25,000ft
Speed:
(Current/Filed)
450kts
Departed: 21-Apr-20 07:59 AM
Arrived: 21-Apr-20 08:52 AM
Distance/Time
Traveled:
388nm/0:52
Distance/Time
To Go:
Arrived

Flight Plot

Page will automatically refresh every two minutes.

Flight plan parsing failed; only flown route is shown


Map Options




Map Legend


Flown Route
Filed Route
Departure Airport
Arrival Airport
Navaid (VOR, NDB)
Fix

Horizontal Profiles

Position Reports

Time Latitude Longitude Heading Altitude Ground
Speed
21-Apr-20 07:55 48.261541 -101.292861 6 1719ft 0kts
21-Apr-20 07:56 48.262217 -101.290532 6 1719ft 13kts
21-Apr-20 07:57 48.265139 -101.288590 135 1719ft 9kts
21-Apr-20 07:58 48.241166 -101.251282 118 2444ft 277kts
21-Apr-20 07:59 48.202818 -101.120478 117 7687ft 373kts
21-Apr-20 08:00 48.157495 -100.966417 115 12539ft 428kts
21-Apr-20 08:01 48.103032 -100.796734 112 16399ft 482kts
21-Apr-20 08:02 48.046954 -100.613156 111 20748ft 491kts
21-Apr-20 08:03 47.986647 -100.421742 112 23355ft 524kts
21-Apr-20 08:04 47.921450 -100.218782 112 24941ft 567kts
21-Apr-20 08:05 47.856072 -100.021493 113 24603ft 512kts
21-Apr-20 08:06 47.791651 -99.836294 114 26560ft 509kts
21-Apr-20 08:07 47.726220 -99.650090 112 27064ft 503kts
21-Apr-20 08:08 47.663837 -99.475371 112 26733ft 456kts
21-Apr-20 08:09 47.609860 -99.319903 112 26799ft 401kts
21-Apr-20 08:10 47.555519 -99.174121 118 26977ft 403kts
21-Apr-20 08:11 47.480767 -99.045989 127 26836ft 416kts
21-Apr-20 08:12 47.428476 -98.893198 109 26506ft 423kts
21-Apr-20 08:13 47.375868 -98.733227 115 26328ft 443kts
21-Apr-20 08:14 47.316714 -98.572046 108 25913ft 466kts
21-Apr-20 08:15 47.261192 -98.391479 112 25991ft 487kts
21-Apr-20 08:16 47.197008 -98.216935 115 26568ft 496kts
21-Apr-20 08:17 47.127247 -98.039233 113 26899ft 506kts
21-Apr-20 08:18 47.059534 -97.854687 115 27091ft 521kts
21-Apr-20 08:19 46.987177 -97.666790 112 26940ft 541kts
21-Apr-20 08:20 46.917154 -97.467960 113 26966ft 556kts
21-Apr-20 08:21 46.845802 -97.270355 111 27528ft 557kts
21-Apr-20 08:22 46.780751 -97.064851 108 27598ft 567kts
21-Apr-20 08:23 46.712113 -96.856910 113 28074ft 573kts
21-Apr-20 08:24 46.628210 -96.658818 123 28530ft 581kts
21-Apr-20 08:25 46.517958 -96.484879 126 28581ft 592kts
21-Apr-20 08:26 46.435590 -96.269610 111 26481ft 621kts
21-Apr-20 08:27 46.352455 -96.050812 119 26956ft 602kts
21-Apr-20 08:28 46.286502 -95.842702 96 27811ft 574kts
21-Apr-20 08:29 46.264668 -95.616988 90 28427ft 565kts
21-Apr-20 08:30 46.241489 -95.386130 89 27396ft 594kts
21-Apr-20 08:31 46.213379 -95.145688 100 25442ft 619kts
21-Apr-20 08:32 46.146129 -94.917782 108 25768ft 618kts
21-Apr-20 08:33 46.074734 -94.694722 110 27008ft 597kts
21-Apr-20 08:34 46.004434 -94.478772 105 27137ft 609kts
21-Apr-20 08:35 45.935311 -94.250562 110 25121ft 627kts
21-Apr-20 08:36 45.909011 -94.171961 110 24381ft 591kts
21-Apr-20 08:37 45.842351 -93.974526 111 20163ft 561kts
21-Apr-20 08:38 45.775384 -93.778175 112 14370ft 535kts
21-Apr-20 08:39 45.685269 -93.629732 154 11248ft 470kts
21-Apr-20 08:40 45.571371 -93.562964 159 9936ft 411kts
21-Apr-20 08:41 45.491153 -93.471391 106 8059ft 370kts
21-Apr-20 08:42 45.424522 -93.374818 164 7223ft 378kts
21-Apr-20 08:43 45.311269 -93.331060 165 7349ft 462kts
21-Apr-20 08:45 45.194724 -93.284348 163 5077ft 410kts
21-Apr-20 08:46 45.090152 -93.258220 172 4145ft 364kts
21-Apr-20 08:47 44.994467 -93.272101 157 2405ft 334kts
21-Apr-20 08:48 44.939125 -93.183470 128 1953ft 272kts
21-Apr-20 08:49 44.891950 -93.117307 187 2059ft 217kts
21-Apr-20 08:50 44.872008 -93.172145 300 1224ft 167kts
21-Apr-20 08:51 44.889935 -93.213940 300 844ft 41kts
21-Apr-20 08:52 44.893100 -93.218834 72 844ft 4kts
21-Apr-20 08:53 44.892486 -93.216943 115 844ft 11kts
21-Apr-20 08:54 44.892419 -93.212446 89 844ft 6kts
21-Apr-20 08:55 44.890642 -93.212712 227 844ft 84kts
21-Apr-20 08:56 44.899434 -93.267123 9 2767ft 352kts
21-Apr-20 08:57 44.988011 -93.277335 346 3061ft 318kts
21-Apr-20 08:58 45.068945 -93.307496 342 5271ft 369kts
21-Apr-20 08:59 45.171579 -93.380224 331 9151ft 444kts
21-Apr-20 09:00 45.277299 -93.464846 330 9707ft 385kts
21-Apr-20 09:01 45.360143 -93.534992 328 8098ft 320kts
21-Apr-20 09:02 45.439764 -93.577369 9 6777ft 280kts
21-Apr-20 09:03 45.401577 -93.510352 159 6884ft 333kts
21-Apr-20 09:04 45.332134 -93.459046 145 7268ft 323kts
21-Apr-20 09:05 45.239610 -93.364031 142 12342ft 469kts
21-Apr-20 09:06 45.128341 -93.241432 141 13743ft 572kts
21-Apr-20 09:06 45.024097 -93.125261 141 13623ft 531kts

Navigation Log

Ident Type
Flight plan parsing failed, navigation log unavailable